createdAt,value
2019-01-08T00:00:01.347Z,98.26
2019-01-08T00:05:01.929Z,98.18
2019-01-08T00:10:01.202Z,98.18
2019-01-08T00:15:01.563Z,98.18
2019-01-08T00:20:01.922Z,98.37
2019-01-08T00:25:01.209Z,98.51
2019-01-08T00:30:01.490Z,98.49
2019-01-08T00:35:01.762Z,98.46
2019-01-08T00:40:02.075Z,98.57
2019-01-08T00:45:01.351Z,98.79
2019-01-08T00:50:01.651Z,98.85
2019-01-08T00:55:01.933Z,98.97
2019-01-08T01:00:01.267Z,98.92
2019-01-08T01:05:01.584Z,98.91
2019-01-08T01:10:01.863Z,99.08
2019-01-08T01:15:02.173Z,98.6
2019-01-08T01:20:01.465Z,98.47
2019-01-08T01:25:01.764Z,100.26
2019-01-08T01:30:02.034Z,98.18
2019-01-08T01:35:01.374Z,99.64
2019-01-08T01:40:01.659Z,99.5
2019-01-08T01:45:01.984Z,99.24
2019-01-08T01:50:01.259Z,99.56
2019-01-08T01:55:01.619Z,99.39
2019-01-08T02:00:01.906Z,99.26
2019-01-08T02:05:01.197Z,99.14
2019-01-08T02:10:01.499Z,99.18
2019-01-08T02:15:01.871Z,98.98
2019-01-08T02:20:02.166Z,98.84
2019-01-08T02:25:01.511Z,98.94
2019-01-08T02:30:01.512Z,99.06
2019-01-08T02:35:01.921Z,99.06
2019-01-08T02:40:01.222Z,98.96
2019-01-08T02:45:01.546Z,99.11
2019-01-08T02:50:01.827Z,98.92
2019-01-08T02:55:02.085Z,98.96
2019-01-08T03:00:01.326Z,96.95
2019-01-08T03:05:01.649Z,97.25
2019-01-08T03:10:01.952Z,97.08
2019-01-08T03:15:01.252Z,96.95
2019-01-08T03:20:01.585Z,97.02
2019-01-08T03:25:01.859Z,97.07
2019-01-08T03:30:02.110Z,96.68
2019-01-08T03:35:01.387Z,96.41
2019-01-08T03:40:01.219Z,98.78
2019-01-08T03:45:01.569Z,96.05
2019-01-08T03:50:01.868Z,98.51
2019-01-08T03:55:02.108Z,95.38
2019-01-08T04:00:01.367Z,97.3
2019-01-08T04:05:01.616Z,98.05
2019-01-08T04:10:01.926Z,98.15
2019-01-08T04:15:01.247Z,98.07
2019-01-08T04:20:01.562Z,96.73
2019-01-08T04:25:01.851Z,98.22
2019-01-08T04:30:02.100Z,98.03
2019-01-08T04:35:01.392Z,97.89
2019-01-08T04:40:01.667Z,97.69
2019-01-08T04:45:01.920Z,97.24
2019-01-08T04:50:02.175Z,97.48
2019-01-08T04:55:01.440Z,97.67
2019-01-08T05:00:01.722Z,97.5
2019-01-08T05:05:01.951Z,97.47
2019-01-08T05:10:01.245Z,97.23
2019-01-08T05:15:01.523Z,96.98
2019-01-08T05:20:01.816Z,97.17
2019-01-08T05:25:02.149Z,97.01
2019-01-08T05:30:08.293Z,96.78
2019-01-08T05:35:01.790Z,96.58
2019-01-08T05:40:01.760Z,96.5
2019-01-08T05:45:02.062Z,96.39
2019-01-08T05:50:01.306Z,96.08
2019-01-08T05:55:01.590Z,95.82
2019-01-08T06:00:01.869Z,95.27
2019-01-08T06:05:02.146Z,95.49
2019-01-08T06:10:01.406Z,95.03
2019-01-08T06:15:01.686Z,94.9
2019-01-08T06:20:02.005Z,95.48
2019-01-08T06:25:01.280Z,95.37
2019-01-08T06:30:01.534Z,95.01
2019-01-08T06:35:01.815Z,94.84
2019-01-08T06:40:02.133Z,94.89
2019-01-08T06:45:01.430Z,94.78
2019-01-08T06:50:01.712Z,94.89
2019-01-08T06:55:02.004Z,94.54
2019-01-08T07:00:01.298Z,94.31
2019-01-08T07:05:01.609Z,94.06
2019-01-08T07:10:01.888Z,93.31
2019-01-08T07:15:02.155Z,93.51
2019-01-08T07:20:01.422Z,93.62
2019-01-08T07:25:01.683Z,93.45
2019-01-08T07:30:02.130Z,92.45
2019-01-08T07:35:01.467Z,92.8
2019-01-08T07:40:01.760Z,93.11
2019-01-08T07:45:02.034Z,94.23
2019-01-08T07:50:01.289Z,95.11
2019-01-08T07:55:01.607Z,94.96
2019-01-08T08:00:01.933Z,95.09
2019-01-08T08:05:01.241Z,93.23
2019-01-08T08:10:01.514Z,94.04
2019-01-08T08:15:01.784Z,94.68
2019-01-08T08:20:01.283Z,94.87
2019-01-08T08:25:01.563Z,95.62
2019-01-08T08:30:01.858Z,96.89
2019-01-08T08:35:08.837Z,97.28
2019-01-08T08:40:02.115Z,98.05
2019-01-08T08:45:01.374Z,97.84
2019-01-08T08:50:01.660Z,98.21
2019-01-08T08:55:01.965Z,95.06
2019-01-08T09:00:01.261Z,95.45
2019-01-08T09:05:01.557Z,97.57
2019-01-08T09:10:01.855Z,97.02
2019-01-08T09:15:02.159Z,96.59
2019-01-08T09:20:01.416Z,96.18
2019-01-08T09:25:01.700Z,95.05
2019-01-08T09:30:01.995Z,94.9
2019-01-08T09:35:01.304Z,94.02
2019-01-08T09:40:01.581Z,93.7
2019-01-08T09:45:01.845Z,93.04
2019-01-08T09:50:02.114Z,94.43
2019-01-08T09:55:01.391Z,96.49
2019-01-08T10:00:01.664Z,97.01
2019-01-08T10:05:01.914Z,97.63
2019-01-08T10:10:02.162Z,97.06
2019-01-08T10:15:01.426Z,96.45
2019-01-08T10:20:01.740Z,96.99
2019-01-08T10:25:02.092Z,96.34
2019-01-08T10:30:01.389Z,96.39
2019-01-08T10:35:01.711Z,95.51
2019-01-08T10:40:02.008Z,95.18
2019-01-08T10:45:01.292Z,94.35
2019-01-08T10:50:01.596Z,94.54
2019-01-08T10:55:01.883Z,93.81
2019-01-08T11:00:02.118Z,94.19
2019-01-08T11:05:01.402Z,93.48
2019-01-08T11:10:01.714Z,94.28
2019-01-08T11:15:02.014Z,93.81
2019-01-08T11:20:01.274Z,93.66
2019-01-08T11:25:01.539Z,94.32
2019-01-08T11:30:01.849Z,94.6
2019-01-08T11:35:02.108Z,94.64
2019-01-08T11:40:01.392Z,95.14
2019-01-08T11:45:01.729Z,94.68
2019-01-08T11:50:02.051Z,93.95
2019-01-08T11:55:01.342Z,93.29
2019-01-08T12:00:01.762Z,93.26
2019-01-08T12:05:02.053Z,93.62
2019-01-08T12:10:01.361Z,92.67
2019-01-08T12:15:01.663Z,91.85
2019-01-08T12:20:01.960Z,91.57
2019-01-08T12:25:01.319Z,90.78
2019-01-08T12:30:01.566Z,90.9
2019-01-08T12:35:01.870Z,90.19
2019-01-08T12:40:02.159Z,90.68
2019-01-08T12:45:01.402Z,90.37
2019-01-08T12:50:01.691Z,91.04
2019-01-08T12:55:01.974Z,90.71
2019-01-08T13:00:01.258Z,91.35
2019-01-08T13:05:01.545Z,92.3
2019-01-08T13:10:01.818Z,92.79
2019-01-08T13:15:02.135Z,93.28
2019-01-08T13:20:01.409Z,94.42
2019-01-08T13:25:01.648Z,96.47
2019-01-08T13:30:01.984Z,96.88
2019-01-08T13:35:01.273Z,97.83
2019-01-08T13:40:01.639Z,97.81
2019-01-08T13:45:01.918Z,98.2
2019-01-08T13:50:01.191Z,98.92
2019-01-08T13:55:01.808Z,98.72
2019-01-08T14:00:02.074Z,98.84
2019-01-08T14:05:01.310Z,98.96
2019-01-08T14:10:01.557Z,99.11
2019-01-08T14:15:01.854Z,98.72
2019-01-08T14:20:01.376Z,98.24
2019-01-08T14:25:01.625Z,98.15
2019-01-08T14:30:01.878Z,98.6
2019-01-08T14:35:02.191Z,97.8
2019-01-08T14:40:01.412Z,98.64
2019-01-08T14:45:01.748Z,98.5
2019-01-08T14:50:02.033Z,99.08
2019-01-08T14:55:01.345Z,99.2
2019-01-08T15:00:01.645Z,97.11
2019-01-08T15:05:01.947Z,95.87
2019-01-08T15:10:03.411Z,98.09
2019-01-08T15:15:02.066Z,97.13
2019-01-08T15:20:01.343Z,97.63
2019-01-08T15:25:01.628Z,97.34
2019-01-08T15:30:01.930Z,96.5
2019-01-08T15:35:01.218Z,96.69
2019-01-08T15:40:01.513Z,95.86
2019-01-08T15:45:01.830Z,96.06
2019-01-08T15:50:02.107Z,95.31
2019-01-08T15:55:01.340Z,96.23
2019-01-08T16:00:01.607Z,95.51
2019-01-08T16:05:01.984Z,95.67
2019-01-08T16:10:01.337Z,95.04
2019-01-08T16:15:01.628Z,94.61
2019-01-08T16:20:01.922Z,94.44
2019-01-08T16:25:01.292Z,94.69
2019-01-08T16:30:01.562Z,94.4
2019-01-08T16:35:01.839Z,94.05
2019-01-08T16:40:02.082Z,94.09
2019-01-08T16:45:01.335Z,93.29
2019-01-08T16:50:01.745Z,93.38
2019-01-08T16:55:02.029Z,93.38
2019-01-08T17:00:01.320Z,93.89
2019-01-08T17:05:01.642Z,93.74
2019-01-08T17:10:02.015Z,94.22
2019-01-08T17:15:01.272Z,93.8
2019-01-08T17:20:01.570Z,92.87
2019-01-08T17:25:01.887Z,92.58
2019-01-08T17:30:02.134Z,91.96
2019-01-08T17:35:01.432Z,91.53
2019-01-08T17:40:01.732Z,90.83
2019-01-08T17:45:01.979Z,90.49
2019-01-08T17:50:01.286Z,90.73
2019-01-08T17:55:01.635Z,90.86
2019-01-08T18:00:01.930Z,90.72
2019-01-08T18:05:01.228Z,90.32
2019-01-08T18:10:01.546Z,89.56
2019-01-08T18:15:01.821Z,88.81
2019-01-08T18:20:02.068Z,89.22
2019-01-08T18:25:01.288Z,88.26
2019-01-08T18:30:01.556Z,88.54
2019-01-08T18:35:01.849Z,88.14
2019-01-08T18:40:02.103Z,87.58
2019-01-08T18:45:01.345Z,88.61
2019-01-08T18:50:01.651Z,88.06
2019-01-08T18:55:01.935Z,89.2
2019-01-08T19:00:01.200Z,91.04
2019-01-08T19:05:01.497Z,91.57
2019-01-08T19:10:01.827Z,92.32
2019-01-08T19:15:02.084Z,91.82
2019-01-08T19:20:01.370Z,91.83
2019-01-08T19:25:01.641Z,91.35
2019-01-08T19:30:01.920Z,90.52
2019-01-08T19:35:01.215Z,90.64
2019-01-08T19:40:01.566Z,89.71
2019-01-08T19:45:01.873Z,89.44
2019-01-08T19:50:02.142Z,89.26
2019-01-08T19:55:01.400Z,88.74
2019-01-08T20:00:01.681Z,88.31
2019-01-08T20:05:01.951Z,87.93
2019-01-08T20:10:01.231Z,87.91
2019-01-08T20:15:01.529Z,88.14
2019-01-08T20:20:01.819Z,88.08
2019-01-08T20:25:02.087Z,88.07
2019-01-08T20:30:01.325Z,88.31
2019-01-08T20:35:01.616Z,88.56
2019-01-08T20:40:01.888Z,89.38
2019-01-08T20:45:02.153Z,89.5
2019-01-08T20:50:01.417Z,90.18
2019-01-08T20:55:01.715Z,89.79
2019-01-08T21:00:01.991Z,90.99
2019-01-08T21:05:01.324Z,91.89
2019-01-08T21:10:01.623Z,91.15
2019-01-08T21:15:02.114Z,91.03
2019-01-08T21:20:01.399Z,92.32
2019-01-08T21:25:01.704Z,93.55
2019-01-08T21:30:01.990Z,93.74
2019-01-08T21:35:01.276Z,93.2
2019-01-08T21:40:01.554Z,93.9
2019-01-08T21:45:01.973Z,94.34
2019-01-08T21:50:01.260Z,94.68
2019-01-08T21:55:01.550Z,94.67
2019-01-08T22:00:01.834Z,94.54
2019-01-08T22:05:02.107Z,94.28
2019-01-08T22:10:01.368Z,94.89
2019-01-08T22:15:01.651Z,95.11
2019-01-08T22:20:01.918Z,94.25
2019-01-08T22:25:01.219Z,94.34
2019-01-08T22:30:01.482Z,94.56
2019-01-08T22:35:02.861Z,94.88
2019-01-08T22:40:01.207Z,95.26
2019-01-08T22:45:01.526Z,95.13
2019-01-08T22:50:01.814Z,95.96
2019-01-08T22:55:02.090Z,96.69
2019-01-08T23:00:01.359Z,95.89
2019-01-08T23:05:11.174Z,95.76
2019-01-08T23:10:01.496Z,97.42
2019-01-08T23:15:01.775Z,97.58
2019-01-08T23:20:02.057Z,96.47
2019-01-08T23:25:01.343Z,95.8
2019-01-08T23:30:01.626Z,95.49
2019-01-08T23:35:01.915Z,96.56
2019-01-08T23:40:01.222Z,97.71
2019-01-08T23:45:01.505Z,97.78
2019-01-08T23:50:01.786Z,97.09
2019-01-08T23:55:02.068Z,96.09
